Awendaw, South Carolina
Current Conditions -  °F | °C
As of 7:15 PM on Sunday 23 Nov 2014 (Local Time) from KLRO Reporting Station
Overcast Overcast  
Wind Chill: 20°   Ceiling: 800
Heat Index: 20°   Visibility: 1.7mi
Dew Point: 20°   Wind: 5mph
Humidity: 100%   Direction: 130°SE
Pressure: 29.85"   Gusts: NA
Location:  33.04°N, 79.61°W
Report Text: KLRO 240015Z AUTO 13004KT 1 3/4SM OVC008 20/20 A2985 RMK AO2 PWINO PNO
Loading
Personal Weather Stations






























Interactive Weather Map New forecast layout! Learn more

10-Day Weather Forecast

Advertisements
Track Severe Weather on mobile